AirNav   Air Wisconsin Up To $57,000 Bonus
 
 964 users online  

18NC Lanni Field Airport
Lenoir, North Carolina, USA

GOING TO LENOIR?


FAA INFORMATION EFFECTIVE 01 DECEMBER 2022

Location

FAA Identifier: 18NC
Lat/Long: 35-53-20.4680N 081-36-49.3530W
35-53.341133N 081-36.822550W
35.8890189,-81.6137092
(estimated)
Elevation: 1160 ft. / 354 m (estimated)
Variation: 05W (1990)
From city: 4 miles W of LENOIR, NC
Time zone: UTC -5 (UTC -4 during Daylight Saving Time)
Zip code: 28645

Airport Operations

Airport use: Private use. Permission required prior to landing
Activation date: 01/1994
Control tower: no
ARTCC: ATLANTA CENTER
FSS: RALEIGH FLIGHT SERVICE STATION
Attendance: UNATNDD
Wind indicator: yes
Segmented circle: no

Airport Communications

WX AWOS-3P at MRN (4 nm S): 124.175 (828-757-0788)
WX ASOS at HKY (14 nm SE): 118.325 (828-322-2996)

Nearby radio navigation aids

VOR radial/distance  VOR name  Freq  Var
BZMr280/18.2BARRETTS MOUNTAIN VOR/DME113.7506W

 
NDB name  Hdg/Dist  Freq  Var  ID
FIDDLERS022/11.139107WFIQ ..-. .. --.-
HEMLOCK143/20.532002WBAR -... .- .-.
ASHEE210/35.641007WJUH .--- ..- ....
FIRST RIVER005/38.241706WSLP ... .-.. .--.

Airport Services

Runway Information

Runway 3/21

Dimensions: 750 x 50 ft. / 229 x 15 m
Surface: turf
RUNWAY 3  RUNWAY 21
Traffic pattern: leftleft

Airport Ownership and Management from official FAA records

Ownership: Privately-owned
Owner: ARTHUR & RUTH LANNI
2055 LANNI FARM LANE
LENOIR, NC 28645
Phone 828-238-4565
Manager: ARTHUR & RUTH LANNI
116 OVERVIEW LAND
CORY, NC 27511
Phone 828-238-4565

Airport Operational Statistics

Aircraft based on the field: 1
Single engine airplanes: 1
    

Additional Remarks

FOR CD CTC ATLANTA ARTCC AT 770-210-7692.

Instrument Procedures

There are no published instrument procedures at 18NC.

Some nearby airports with instrument procedures:

KMRN - Foothills Regional Airport (4 nm S)
KHKY - Hickory Regional Airport (14 nm SE)
KFQD - Rutherford County Airport/Marchman Field (32 nm SW)
KUKF - Wilkes County Airport (32 nm NE)
KIPJ - Lincolnton-Lincoln County Regional Airport (33 nm SE)
 
Loc | Ops | Rwys | IFR | FBO | Links
Com | Nav | Svcs | Stats | Notes
Area around 18NC (Lanni Field Airport)
 
Road maps at: MapQuest Bing Google
 
Aerial photo
No photo
 
Sectional chart

 
Airport distance calculator
Flying to Lanni Field Airport? Find the distance to fly.

From to 18NC

Sunrise and sunset
Times for 06-Dec-2022
 Local
(UTC-5)
 Zulu
(UTC)
Morning civil twilight06:5511:55
Sunrise07:2412:24
Sunset17:1122:11
Evening civil twilight17:4022:40

Current date and time
Zulu (UTC)  07-Dec-2022 04:46:54
Local (UTC-5)  06-Dec-2022 23:46:54
 
METAR
KMRN 
4nm S 
070435Z AUTO 00000KT 1SM BR OVC001 08/08 A3029 RMK AO2 T00830080
KHKY 
14nm SE 
070353Z AUTO 00000KT 10SM FG OVC002 08/08 A3025 RMK AO2 SLP237 T00780078
KTNB 
19nm N 
118.525 828-268-8921
070435Z AUTO 00000KT 7SM BKN040 OVC046 07/07 A3025 RMK AO2 T00740074
TAF
KHKY 
14nm SE 
070227Z 0702/0724 VRB02KT 2SM -RADZ BR OVC002 FM070400 00000KT 1/4SM -DZ FG VCSH OVC001 FM071400 VRB02KT 1/2SM -RADZ OVC002 FM071700 21004KT 2SM BR VCSH OVC006 FM072200 23003KT 4SM BR OVC008
NOTAMs
Click for the latest NOTAMs
NOTAMs are issued by the DoD/FAA and will open in a separate window not controlled by AirNav.

 

 
 

Would you like to see your business listed on this page?

 If your business provides an interesting product or service to pilots, flight crews, aircraft, or users of the Lanni Field Airport, you should consider listing it here.  To start the listing process, click on the button below
 
Add a business
 

Other Pages about Lanni Field Airport

Update a link
 
Copyright © AirNav, LLC. All rights reserved. Privacy Policy  Contact